createdAt,value
2018-06-19T05:32:10.227Z,44.57
2018-06-19T05:34:43.789Z,44.27
2018-06-19T05:37:13.565Z,44.26
2018-06-19T05:39:43.076Z,45.01
2018-06-19T05:42:12.602Z,44.34
2018-06-19T05:44:42.104Z,43.83
2018-06-19T05:47:11.643Z,43.81
2018-06-19T05:49:41.167Z,44.00
2018-06-19T05:52:10.661Z,43.16
2018-06-19T05:54:40.195Z,42.34
2018-06-19T05:57:09.701Z,42.50
2018-06-19T05:59:39.249Z,41.08
2018-06-19T06:02:08.815Z,40.35
2018-06-19T06:04:38.299Z,40.49
2018-06-19T06:07:07.863Z,41.00
2018-06-19T06:09:37.457Z,41.24
2018-06-19T06:12:07.212Z,40.49
2018-06-19T06:14:36.712Z,41.48
2018-06-19T06:17:06.226Z,40.79
2018-06-19T06:19:35.726Z,40.08
2018-06-19T06:22:05.310Z,39.41
2018-06-19T06:24:34.798Z,40.23
2018-06-19T06:27:04.313Z,38.71
2018-06-19T06:29:33.890Z,39.09
2018-06-19T06:32:03.419Z,38.76
2018-06-19T06:34:32.869Z,37.52
2018-06-19T06:37:02.768Z,37.53
2018-06-19T06:39:32.238Z,37.77
2018-06-19T06:42:01.736Z,37.69
2018-06-19T06:44:31.344Z,38.09
2018-06-19T06:47:00.852Z,37.11
2018-06-19T06:49:30.337Z,36.53
2018-06-19T06:51:59.825Z,35.69
2018-06-19T06:54:29.289Z,37.15
2018-06-19T06:57:00.808Z,36.62
2018-06-19T06:59:31.165Z,37.45
2018-06-19T07:02:00.740Z,37.71
2018-06-19T07:04:30.254Z,38.78
2018-06-19T07:07:00.116Z,38.85
2018-06-19T07:09:29.624Z,38.01
2018-06-19T07:11:59.130Z,37.67
2018-06-19T07:14:28.623Z,36.39
2018-06-19T07:16:58.742Z,36.86
2018-06-19T07:19:28.340Z,36.71
2018-06-19T07:21:57.966Z,37.89
2018-06-19T07:24:27.457Z,38.45
2018-06-19T07:26:56.969Z,38.59
2018-06-19T07:29:26.931Z,39.74
2018-06-19T07:31:56.432Z,40.00
2018-06-19T07:34:26.987Z,39.40
2018-06-19T07:36:59.952Z,39.98
2018-06-19T07:39:29.451Z,39.16
2018-06-19T07:42:16.415Z,39.37
2018-06-19T07:44:45.862Z,39.01
2018-06-19T07:47:16.193Z,38.20
2018-06-19T07:49:46.269Z,39.11
2018-06-19T07:52:16.051Z,38.86
2018-06-19T07:54:45.560Z,39.62
2018-06-19T07:57:21.062Z,38.99
2018-06-19T07:59:50.704Z,39.95
2018-06-19T08:02:20.318Z,40.72
2018-06-19T08:04:49.820Z,40.11
2018-06-19T08:07:21.728Z,40.92
2018-06-19T08:09:51.258Z,41.06
2018-06-19T08:12:20.824Z,40.92
2018-06-19T08:14:50.308Z,40.87
2018-06-19T08:17:19.770Z,42.05
2018-06-19T08:19:49.275Z,42.41
2018-06-19T08:22:18.835Z,42.39
2018-06-19T08:24:48.368Z,42.21
2018-06-19T08:27:17.892Z,41.60
2018-06-19T08:29:47.431Z,41.68
2018-06-19T08:32:17.115Z,41.89
2018-06-19T08:34:46.608Z,41.76
2018-06-19T08:37:16.144Z,42.12
2018-06-19T08:39:45.619Z,43.17
2018-06-19T08:42:15.208Z,42.77
2018-06-19T08:44:44.717Z,42.20
2018-06-19T08:47:14.218Z,41.71
2018-06-19T08:49:43.727Z,40.53
2018-06-19T08:52:13.201Z,40.53
2018-06-19T08:54:42.697Z,41.01
2018-06-19T08:57:12.211Z,42.39
2018-06-19T08:59:41.669Z,41.68
2018-06-19T09:02:11.128Z,41.51
2018-06-19T09:04:40.604Z,40.66
2018-06-19T09:07:10.274Z,39.46
2018-06-19T09:09:39.889Z,40.01
2018-06-19T09:12:09.467Z,39.43
2018-06-19T09:14:38.949Z,38.40
2018-06-19T09:17:08.460Z,37.65
2018-06-19T09:19:38.065Z,36.90
2018-06-19T09:22:07.552Z,34.27
2018-06-19T09:24:37.033Z,33.25
2018-06-19T09:27:09.391Z,32.85
2018-06-19T09:29:38.918Z,32.52
2018-06-19T09:32:08.440Z,32.12
2018-06-19T09:34:37.971Z,33.25
2018-06-19T09:37:07.472Z,33.71
2018-06-19T09:39:37.064Z,32.74
2018-06-19T09:42:06.670Z,32.73
2018-06-19T09:44:37.611Z,33.29
2018-06-19T09:47:07.159Z,32.69
2018-06-19T09:49:36.691Z,32.01
2018-06-19T09:52:06.470Z,31.77
2018-06-19T09:54:35.935Z,32.02
2018-06-19T09:57:05.457Z,31.48
2018-06-19T09:59:35.050Z,31.83
2018-06-19T10:02:04.577Z,31.61
2018-06-19T10:04:34.056Z,30.61
2018-06-19T10:07:03.521Z,29.61
2018-06-19T10:09:33.011Z,29.05
2018-06-19T10:12:02.470Z,28.87
2018-06-19T10:14:31.960Z,29.56
2018-06-19T10:17:01.477Z,28.46
2018-06-19T10:19:30.994Z,28.96
2018-06-19T10:22:00.435Z,27.09
2018-06-19T10:24:29.983Z,26.22
2018-06-19T10:27:00.020Z,26.41
2018-06-19T10:29:29.682Z,26.99
2018-06-19T10:31:59.132Z,27.41
2018-06-19T10:34:28.605Z,25.97
2018-06-19T10:36:58.082Z,26.62
2018-06-19T10:39:27.582Z,25.97
2018-06-19T10:41:57.078Z,26.61
2018-06-19T10:44:26.534Z,25.56
2018-06-19T10:46:56.044Z,25.95
2018-06-19T10:49:25.581Z,25.19
2018-06-19T10:51:55.055Z,23.98
2018-06-19T10:54:24.662Z,23.86
2018-06-19T10:56:54.154Z,23.16
2018-06-19T10:59:23.411Z,22.61
2018-06-19T11:01:53.466Z,21.28
2018-06-19T11:04:22.664Z,19.93
2018-06-19T11:06:52.637Z,20.09
2018-06-19T11:09:22.161Z,19.14
2018-06-19T11:11:51.673Z,18.91
2018-06-19T11:14:21.209Z,18.56
2018-06-19T11:16:50.775Z,17.89
2018-06-19T11:19:20.321Z,17.81
2018-06-19T11:21:49.813Z,18.08
2018-06-19T11:24:19.408Z,18.53
2018-06-19T11:26:49.528Z,19.57
2018-06-19T11:29:19.043Z,20.92
2018-06-19T11:31:49.189Z,20.95
2018-06-19T11:34:18.768Z,20.59
2018-06-19T11:36:48.356Z,20.16
2018-06-19T11:39:17.979Z,20.93
2018-06-19T11:41:47.523Z,21.06
2018-06-19T11:44:17.017Z,21.53
2018-06-19T11:46:46.957Z,21.40
2018-06-19T11:49:16.515Z,21.18
2018-06-19T11:51:46.362Z,20.16
2018-06-19T11:54:15.876Z,20.08
2018-06-19T11:56:45.408Z,19.80
2018-06-19T11:59:14.877Z,19.99
2018-06-19T12:01:44.477Z,19.33
2018-06-19T12:04:14.201Z,19.25
2018-06-19T12:06:43.748Z,19.45
2018-06-19T12:09:13.323Z,19.86
2018-06-19T12:11:42.807Z,21.53
2018-06-19T12:14:12.463Z,21.51
2018-06-19T12:16:41.988Z,21.21
2018-06-19T12:19:11.583Z,21.99
2018-06-19T12:21:41.109Z,21.93
2018-06-19T12:24:10.758Z,22.03
2018-06-19T12:26:40.388Z,22.91
2018-06-19T12:29:09.935Z,24.45
2018-06-19T12:31:39.939Z,25.01
2018-06-19T12:34:09.413Z,24.81
2018-06-19T12:36:38.869Z,24.27
2018-06-19T12:39:11.652Z,24.62
2018-06-19T12:41:49.513Z,25.42
2018-06-19T12:44:18.990Z,25.67
2018-06-19T12:46:48.256Z,24.24
2018-06-19T12:49:32.200Z,22.96
2018-06-19T12:52:19.567Z,22.02
2018-06-19T12:56:03.622Z,21.46
2018-06-19T12:58:33.907Z,20.86
2018-06-19T13:01:03.391Z,20.63
2018-06-19T13:03:49.643Z,21.51
2018-06-19T13:06:31.581Z,20.97
2018-06-19T13:09:01.631Z,21.50
2018-06-19T13:11:32.067Z,20.92
2018-06-19T13:14:18.537Z,20.13
2018-06-19T13:17:06.296Z,20.42
2018-06-19T13:19:52.797Z,20.75
2018-06-19T13:22:22.409Z,20.46
2018-06-19T13:24:51.925Z,19.72
2018-06-19T13:27:22.609Z,19.69
2018-06-19T13:30:10.232Z,20.03
2018-06-19T13:32:40.224Z,20.12
2018-06-19T13:35:10.225Z,20.01
2018-06-19T13:37:39.884Z,20.10
2018-06-19T13:41:25.466Z,19.94
2018-06-19T13:44:14.107Z,19.37
2018-06-19T13:46:43.605Z,19.39
2018-06-19T13:49:13.333Z,20.22
2018-06-19T13:51:43.424Z,20.16
2018-06-19T13:54:12.969Z,19.93
2018-06-19T13:57:33.067Z,19.51
2018-06-19T14:00:06.131Z,19.06
2018-06-19T14:02:35.677Z,18.76
2018-06-19T14:05:05.831Z,19.06
2018-06-19T14:07:41.371Z,18.59
2018-06-19T14:10:31.836Z,18.29
2018-06-19T14:13:02.877Z,17.63
2018-06-19T14:15:35.373Z,19.02
2018-06-19T14:18:05.242Z,19.23
2018-06-19T14:20:35.751Z,20.38
2018-06-19T14:23:05.384Z,21.18
2018-06-19T14:25:34.915Z,21.71
2018-06-19T14:28:04.494Z,22.34
2018-06-19T14:30:33.971Z,22.68
2018-06-19T14:33:04.084Z,22.54
2018-06-19T14:35:34.127Z,23.24
2018-06-19T14:38:03.908Z,21.27
2018-06-19T14:40:34.950Z,19.71
2018-06-19T14:43:04.668Z,16.95
2018-06-19T14:45:35.288Z,17.77
2018-06-19T14:48:11.328Z,19.29
2018-06-19T14:50:40.945Z,17.91
2018-06-19T14:53:10.708Z,19.31
2018-06-19T14:55:40.383Z,19.40
2018-06-19T14:58:09.992Z,20.37
2018-06-19T15:00:39.493Z,19.45
2018-06-19T15:03:09.582Z,19.91
2018-06-19T15:05:39.645Z,19.69
2018-06-19T15:08:09.289Z,20.21
2018-06-19T15:10:38.848Z,20.41
2018-06-19T15:13:08.328Z,19.75
2018-06-19T15:15:37.895Z,19.14
2018-06-19T15:18:07.392Z,18.79
2018-06-19T15:20:36.825Z,18.64
2018-06-19T15:23:06.501Z,19.10
2018-06-19T15:25:35.958Z,18.48
2018-06-19T15:28:05.515Z,19.08
2018-06-19T15:30:34.976Z,19.15
2018-06-19T15:33:04.714Z,18.69
2018-06-19T15:35:34.183Z,18.14
2018-06-19T15:38:03.720Z,19.84
2018-06-19T15:40:33.233Z,20.23
2018-06-19T15:43:02.950Z,20.55
2018-06-19T15:45:32.455Z,20.81
2018-06-19T15:48:01.940Z,21.38
2018-06-19T15:50:32.023Z,20.34
2018-06-19T15:53:01.484Z,21.50
2018-06-19T15:55:31.191Z,20.85
2018-06-19T15:58:00.674Z,20.30
2018-06-19T16:00:30.177Z,19.81
2018-06-19T16:03:00.143Z,19.31
2018-06-19T16:05:29.630Z,20.05
2018-06-19T16:08:04.555Z,20.87
2018-06-19T16:10:34.475Z,21.34
2018-06-19T16:13:04.099Z,21.23
2018-06-19T16:15:33.645Z,21.77
2018-06-19T16:18:03.800Z,22.79
2018-06-19T16:20:33.762Z,22.29
2018-06-19T16:23:03.238Z,21.80
2018-06-19T16:25:33.010Z,21.44
2018-06-19T16:28:02.504Z,22.18
2018-06-19T16:30:33.320Z,21.79
2018-06-19T16:33:03.283Z,22.33
2018-06-19T16:35:32.784Z,21.83
2018-06-19T16:38:03.126Z,22.93
2018-06-19T16:40:32.626Z,22.60
2018-06-19T16:43:02.602Z,23.76
2018-06-19T16:45:32.179Z,23.93
2018-06-19T16:48:02.175Z,24.05
2018-06-19T16:50:31.718Z,24.10
2018-06-19T16:53:01.008Z,24.08
2018-06-19T16:55:30.624Z,24.47
2018-06-19T16:58:00.241Z,24.71
2018-06-19T17:00:29.710Z,24.83
2018-06-19T17:02:59.254Z,26.14
2018-06-19T17:05:29.604Z,26.12
2018-06-19T17:08:00.284Z,25.76
2018-06-19T17:10:31.928Z,27.40
2018-06-19T17:13:01.519Z,27.41
2018-06-19T17:15:31.012Z,27.59
2018-06-19T17:18:00.525Z,27.52
2018-06-19T17:20:30.052Z,28.04
2018-06-19T17:22:59.553Z,28.48
2018-06-19T17:25:29.065Z,28.25
2018-06-19T17:27:58.550Z,27.99
2018-06-19T17:30:28.198Z,29.32
2018-06-19T17:32:57.660Z,29.74
2018-06-19T17:35:27.151Z,29.93
2018-06-19T17:37:57.316Z,28.59
2018-06-19T17:40:27.179Z,29.39
2018-06-19T17:42:56.659Z,29.29
2018-06-19T17:45:26.651Z,30.32
2018-06-19T17:47:57.716Z,29.89
2018-06-19T17:50:27.948Z,29.38
2018-06-19T17:53:02.120Z,30.55
2018-06-19T17:55:31.646Z,31.31
2018-06-19T17:58:03.453Z,29.99
2018-06-19T18:00:33.140Z,31.05
2018-06-19T18:03:05.116Z,30.93
2018-06-19T18:05:36.227Z,31.01
2018-06-19T18:08:07.069Z,30.76
2018-06-19T18:10:36.667Z,30.56
2018-06-19T18:13:06.383Z,30.72
2018-06-19T18:15:35.967Z,31.80
2018-06-19T18:18:05.429Z,31.37
2018-06-19T18:20:35.062Z,31.57
2018-06-19T18:23:04.551Z,30.74
2018-06-19T18:25:34.615Z,30.62
2018-06-19T18:28:04.140Z,30.32
2018-06-19T18:30:33.900Z,31.05
2018-06-19T18:33:03.632Z,30.92
2018-06-19T18:35:33.137Z,31.40
2018-06-19T18:38:02.628Z,32.03
2018-06-19T18:40:35.851Z,33.05
2018-06-19T18:43:05.655Z,32.19
2018-06-19T18:45:35.155Z,33.19
2018-06-19T18:48:05.374Z,33.54
2018-06-19T18:50:35.404Z,32.75
2018-06-19T18:53:04.916Z,34.10
2018-06-19T18:55:35.065Z,33.96
2018-06-19T18:58:05.082Z,33.77
2018-06-19T19:00:35.581Z,33.97
2018-06-19T19:03:05.770Z,34.34
2018-06-19T19:05:35.303Z,34.82
2018-06-19T19:08:05.214Z,34.40
2018-06-19T19:10:39.921Z,34.99
2018-06-19T19:13:09.496Z,35.14
2018-06-19T19:18:26.643Z,34.93
2018-06-19T19:20:56.952Z,35.46
2018-06-19T19:23:27.106Z,35.41
2018-06-19T19:25:56.778Z,35.94
2018-06-19T19:28:31.682Z,37.59
2018-06-19T19:31:01.202Z,38.05
2018-06-19T19:33:30.836Z,39.77
2018-06-19T19:36:01.112Z,39.58
2018-06-19T19:39:39.870Z,40.71
2018-06-19T19:42:09.474Z,39.85
2018-06-19T19:44:39.288Z,40.98
2018-06-19T19:47:14.393Z,40.81
2018-06-19T19:49:43.955Z,41.82
2018-06-19T19:52:13.465Z,41.06
2018-06-19T19:54:42.960Z,41.49
2018-06-19T19:57:17.666Z,42.07
2018-06-19T19:59:47.305Z,42.47
2018-06-19T20:02:17.187Z,42.77
2018-06-19T20:04:46.763Z,42.08
2018-06-19T20:07:16.298Z,42.00
2018-06-19T20:09:46.201Z,41.35
2018-06-19T20:12:16.048Z,42.14
2018-06-19T20:14:45.573Z,41.42
2018-06-19T20:17:15.107Z,42.38
2018-06-19T20:19:44.595Z,42.36
2018-06-19T20:22:14.160Z,41.57
2018-06-19T20:24:43.775Z,42.04
2018-06-19T20:27:13.368Z,41.51
2018-06-19T20:29:46.070Z,41.61
2018-06-19T20:32:40.156Z,42.67
2018-06-19T20:35:09.858Z,43.39
2018-06-19T20:37:39.395Z,42.92
2018-06-19T20:40:09.048Z,43.14
2018-06-19T20:42:38.652Z,44.30
2018-06-19T20:45:08.123Z,43.72
2018-06-19T20:47:37.751Z,44.91
2018-06-19T20:50:07.301Z,45.45
2018-06-19T20:52:38.623Z,45.37
2018-06-19T20:55:10.965Z,44.82
2018-06-19T20:57:40.995Z,45.08
2018-06-19T21:00:11.034Z,45.55
2018-06-19T21:02:40.619Z,45.36
2018-06-19T21:05:10.212Z,46.10
2018-06-19T21:07:40.128Z,46.44
2018-06-19T21:10:09.736Z,45.78
2018-06-19T21:12:39.309Z,45.92
2018-06-19T21:15:08.881Z,46.70
2018-06-19T21:17:38.523Z,46.32
2018-06-19T21:20:08.219Z,45.95
2018-06-19T21:22:37.841Z,45.06
2018-06-19T21:25:07.665Z,45.83
2018-06-19T21:27:37.814Z,45.93
2018-06-19T21:30:08.340Z,46.54
2018-06-19T21:32:38.109Z,46.17
2018-06-19T21:35:07.723Z,45.87
2018-06-19T21:37:37.313Z,44.93
2018-06-19T21:40:07.443Z,46.00
2018-06-19T21:42:36.950Z,46.38
2018-06-19T21:45:06.698Z,45.82
2018-06-19T21:47:36.417Z,47.31
2018-06-19T21:50:06.095Z,46.47
2018-06-19T21:52:36.085Z,45.86
2018-06-19T21:55:06.096Z,47.00
2018-06-19T21:57:35.798Z,46.33
2018-06-19T22:00:06.728Z,47.01
2018-06-19T22:02:36.340Z,47.14
2018-06-19T22:05:06.157Z,46.46
2018-06-19T22:07:36.011Z,47.26
2018-06-19T22:10:05.939Z,48.04
2018-06-19T22:12:35.667Z,46.66
2018-06-19T22:15:05.880Z,47.75
2018-06-19T22:17:35.563Z,46.96
2018-06-19T22:20:05.227Z,45.85
2018-06-19T22:22:34.439Z,46.50
2018-06-19T22:25:04.801Z,45.55
2018-06-19T22:27:34.474Z,45.52
2018-06-19T22:30:04.060Z,46.26
2018-06-19T22:32:33.667Z,45.94
2018-06-19T22:35:03.467Z,45.86
2018-06-19T22:37:33.272Z,45.63
2018-06-19T22:40:02.977Z,45.73
2018-06-19T22:42:33.023Z,44.82
2018-06-19T22:45:02.913Z,45.26
2018-06-19T22:47:33.097Z,46.24
2018-06-19T22:50:02.614Z,45.71
2018-06-19T22:52:32.341Z,44.87
2018-06-19T22:55:01.942Z,44.81
2018-06-19T22:57:31.599Z,44.92
2018-06-19T23:00:01.225Z,45.77
2018-06-19T23:02:30.991Z,45.78
2018-06-19T23:05:00.985Z,45.70
2018-06-19T23:07:30.597Z,44.71
2018-06-19T23:10:00.166Z,44.57
2018-06-19T23:12:30.588Z,44.64
2018-06-19T23:15:00.790Z,45.70
2018-06-19T23:17:30.996Z,44.75
2018-06-19T23:20:00.546Z,44.73
2018-06-19T23:22:30.287Z,45.12
2018-06-19T23:25:00.551Z,44.53
2018-06-19T23:27:30.332Z,45.81
2018-06-19T23:30:00.486Z,45.86
2018-06-19T23:32:30.111Z,45.19
2018-06-19T23:35:00.096Z,45.98
2018-06-19T23:37:30.585Z,44.96
2018-06-19T23:40:00.413Z,46.17
2018-06-19T23:42:32.156Z,47.14
2018-06-19T23:45:04.151Z,46.31
2018-06-19T23:47:34.959Z,46.82
2018-06-19T23:50:05.260Z,46.92
2018-06-19T23:52:35.606Z,46.69
2018-06-19T23:55:05.775Z,46.82
2018-06-19T23:57:35.666Z,46.70
